createdAt,value
2017-10-21T00:01:05.250Z,7.65
2017-10-21T00:03:32.809Z,8.30
2017-10-21T00:06:00.361Z,8.52
2017-10-21T00:08:27.921Z,8.80
2017-10-21T00:10:55.477Z,9.10
2017-10-21T00:13:23.037Z,8.63
2017-10-21T00:15:50.622Z,7.87
2017-10-21T00:18:18.195Z,8.07
2017-10-21T00:20:45.733Z,7.30
2017-10-21T00:23:13.287Z,8.98
2017-10-21T00:25:40.817Z,9.13
2017-10-21T00:28:09.150Z,9.07
2017-10-21T00:30:36.695Z,9.13
2017-10-21T00:33:04.245Z,9.93
2017-10-21T00:35:31.824Z,8.95
2017-10-21T00:37:59.377Z,9.85
2017-10-21T00:40:26.945Z,10.27
2017-10-21T00:42:54.490Z,9.82
2017-10-21T00:45:22.037Z,9.10
2017-10-21T00:47:49.591Z,10.15
2017-10-21T00:50:17.172Z,9.45
2017-10-21T00:52:44.723Z,9.60
2017-10-21T00:55:12.293Z,9.13
2017-10-21T00:57:39.828Z,9.70
2017-10-21T01:00:07.389Z,9.25
2017-10-21T01:02:34.953Z,10.93
2017-10-21T01:05:02.490Z,10.82
2017-10-21T01:07:30.810Z,10.00
2017-10-21T01:09:58.353Z,10.65
2017-10-21T01:12:25.909Z,11.73
2017-10-21T01:14:53.485Z,10.63
2017-10-21T01:17:21.050Z,9.50
2017-10-21T01:19:48.613Z,9.80
2017-10-21T01:22:16.158Z,10.13
2017-10-21T01:24:43.708Z,9.38
2017-10-21T01:27:11.258Z,10.25
2017-10-21T01:29:39.590Z,10.05
2017-10-21T01:32:07.128Z,8.70
2017-10-21T01:34:34.692Z,9.40
2017-10-21T01:37:02.238Z,8.60
2017-10-21T01:39:29.769Z,9.52
2017-10-21T01:41:57.374Z,10.77
2017-10-21T01:44:24.905Z,9.20
2017-10-21T01:46:52.465Z,9.30
2017-10-21T01:49:20.011Z,9.52
2017-10-21T01:51:47.599Z,10.65
2017-10-21T01:54:15.148Z,10.55
2017-10-21T01:56:42.706Z,9.85
2017-10-21T01:59:10.245Z,9.68
2017-10-21T02:01:38.564Z,9.40
2017-10-21T02:04:06.123Z,11.68
2017-10-21T02:06:33.674Z,9.95
2017-10-21T02:09:01.213Z,9.50
2017-10-21T02:11:28.781Z,8.77
2017-10-21T02:13:56.318Z,10.07
2017-10-21T02:16:24.739Z,10.57
2017-10-21T02:18:52.288Z,9.60
2017-10-21T02:21:19.836Z,10.10
2017-10-21T02:23:47.389Z,10.48
2017-10-21T02:26:14.947Z,10.48
2017-10-21T02:28:43.269Z,9.20
2017-10-21T02:31:10.825Z,9.80
2017-10-21T02:33:38.397Z,9.30
2017-10-21T02:36:05.942Z,9.55
2017-10-21T02:38:33.489Z,9.35
2017-10-21T02:41:01.046Z,11.70
2017-10-21T02:43:28.578Z,12.15
2017-10-21T02:45:56.993Z,10.70
2017-10-21T02:48:24.555Z,13.48
2017-10-21T02:50:52.113Z,13.48
2017-10-21T02:53:19.654Z,13.52
2017-10-21T02:55:47.223Z,13.35
2017-10-21T02:58:14.783Z,13.02
2017-10-21T03:00:42.352Z,13.48
2017-10-21T03:03:09.893Z,13.20
2017-10-21T03:05:37.451Z,14.10
2017-10-21T03:08:05.010Z,14.45
2017-10-21T03:10:32.573Z,14.43
2017-10-21T03:13:00.117Z,14.80
2017-10-21T03:15:28.437Z,13.80
2017-10-21T03:17:55.978Z,12.90
2017-10-21T03:20:23.515Z,14.35
2017-10-21T03:22:51.074Z,14.40
2017-10-21T03:25:18.613Z,13.23
2017-10-21T03:27:46.189Z,14.63
2017-10-21T03:30:14.507Z,14.13
2017-10-21T03:32:42.071Z,14.52
2017-10-21T03:35:09.613Z,14.10
2017-10-21T03:37:37.191Z,11.90
2017-10-21T03:40:04.848Z,12.65
2017-10-21T03:42:32.398Z,13.93
2017-10-21T03:44:59.937Z,13.75
2017-10-21T03:47:27.480Z,12.85
2017-10-21T03:49:55.807Z,15.05
2017-10-21T03:52:23.354Z,14.35
2017-10-21T03:54:50.939Z,14.80
2017-10-21T03:57:18.479Z,13.88
2017-10-21T03:59:46.046Z,14.80
2017-10-21T04:02:13.600Z,13.77
2017-10-21T04:04:41.154Z,15.90
2017-10-21T04:07:08.684Z,14.68
2017-10-21T04:09:37.006Z,15.32
2017-10-21T04:12:04.549Z,16.20
2017-10-21T04:14:32.102Z,15.73
2017-10-21T04:16:59.651Z,15.73
2017-10-21T04:19:27.194Z,16.60
2017-10-21T04:21:55.521Z,16.75
2017-10-21T04:24:23.061Z,16.20
2017-10-21T04:26:50.620Z,15.10
2017-10-21T04:29:18.166Z,17.12
2017-10-21T04:31:45.734Z,17.02
2017-10-21T04:34:13.289Z,18.23
2017-10-21T04:36:40.853Z,16.37
2017-10-21T04:39:08.388Z,17.37
2017-10-21T04:41:36.713Z,18.05
2017-10-21T04:44:04.256Z,17.85
2017-10-21T04:46:31.813Z,16.55
2017-10-21T04:48:59.365Z,17.02
2017-10-21T04:51:26.936Z,16.15
2017-10-21T04:53:54.485Z,14.95
2017-10-21T04:56:22.055Z,14.65
2017-10-21T04:58:49.618Z,16.85
2017-10-21T05:01:17.184Z,17.25
2017-10-21T05:03:44.855Z,15.88
2017-10-21T05:06:12.416Z,16.25
2017-10-21T05:08:39.984Z,17.90
2017-10-21T05:11:07.542Z,18.25
2017-10-21T05:13:35.114Z,16.58
2017-10-21T05:16:02.662Z,17.25
2017-10-21T05:18:30.205Z,16.92
2017-10-21T05:20:57.757Z,17.35
2017-10-21T05:23:25.301Z,18.67
2017-10-21T05:25:53.629Z,18.33
2017-10-21T05:28:21.160Z,19.08
2017-10-21T05:30:48.739Z,18.48
2017-10-21T05:33:16.273Z,17.23
2017-10-21T05:35:43.821Z,16.55
2017-10-21T05:38:12.121Z,18.15
2017-10-21T05:40:39.688Z,18.37
2017-10-21T05:43:07.225Z,19.52
2017-10-21T05:45:34.784Z,18.45
2017-10-21T05:48:02.325Z,17.30
2017-10-21T05:50:30.650Z,19.02
2017-10-21T05:52:58.185Z,18.27
2017-10-21T05:55:25.762Z,19.98
2017-10-21T05:57:53.294Z,18.87
2017-10-21T06:00:20.859Z,17.40
2017-10-21T06:02:48.398Z,17.95
2017-10-21T06:05:16.765Z,17.48
2017-10-21T06:07:45.106Z,16.17
2017-10-21T06:10:12.669Z,17.20
2017-10-21T06:12:40.206Z,16.75
2017-10-21T06:15:07.764Z,16.92
2017-10-21T06:17:36.022Z,16.87
2017-10-21T06:20:04.341Z,15.73
2017-10-21T06:22:31.901Z,14.63
2017-10-21T06:24:59.433Z,15.82
2017-10-21T06:27:27.005Z,15.60
2017-10-21T06:29:54.542Z,14.48
2017-10-21T06:32:22.113Z,15.20
2017-10-21T06:34:49.655Z,12.65
2017-10-21T06:37:17.988Z,14.00
2017-10-21T06:39:45.566Z,12.82
2017-10-21T06:42:13.130Z,11.20
2017-10-21T06:44:41.450Z,12.63
2017-10-21T06:47:09.010Z,12.55
2017-10-21T06:49:36.548Z,11.63
2017-10-21T06:52:04.881Z,12.98
2017-10-21T06:54:32.426Z,11.50
2017-10-21T06:56:59.983Z,11.88
2017-10-21T06:59:27.534Z,11.63
2017-10-21T07:01:55.072Z,9.17
2017-10-21T07:04:22.644Z,11.07
2017-10-21T07:06:50.190Z,9.90
2017-10-21T07:09:17.908Z,10.40
2017-10-21T07:11:46.061Z,10.27
2017-10-21T07:14:13.613Z,10.37
2017-10-21T07:16:41.141Z,9.70
2017-10-21T07:19:09.437Z,10.17
2017-10-21T07:21:37.006Z,9.40
2017-10-21T07:24:04.660Z,11.07
2017-10-21T07:26:32.234Z,9.30
2017-10-21T07:29:00.237Z,9.53
2017-10-21T07:31:28.391Z,8.90
2017-10-21T07:33:55.974Z,10.03
2017-10-21T07:36:24.293Z,9.33
2017-10-21T07:38:51.829Z,8.73
2017-10-21T07:41:19.386Z,9.20
2017-10-21T07:43:46.919Z,9.87
2017-10-21T07:46:14.479Z,8.67
2017-10-21T07:48:42.404Z,6.97
2017-10-21T07:51:10.576Z,8.13
2017-10-21T07:53:38.549Z,6.83
2017-10-21T07:56:06.913Z,6.37
2017-10-21T07:58:34.452Z,6.33
2017-10-21T08:01:02.751Z,6.20
2017-10-21T08:03:30.320Z,6.10
2017-10-21T08:05:57.862Z,5.60
2017-10-21T08:08:25.439Z,5.17
2017-10-21T08:10:52.979Z,6.00
2017-10-21T08:13:20.525Z,5.33
2017-10-21T08:15:48.838Z,4.50
2017-10-21T08:18:16.359Z,4.90
2017-10-21T08:20:44.692Z,4.37
2017-10-21T08:23:12.252Z,4.20
2017-10-21T08:25:40.609Z,4.97
2017-10-21T08:28:08.140Z,4.50
2017-10-21T08:30:35.687Z,4.07
2017-10-21T08:33:03.223Z,4.03
2017-10-21T08:35:31.550Z,3.40
2017-10-21T08:37:59.105Z,3.60
2017-10-21T08:40:26.680Z,3.33
2017-10-21T08:42:54.229Z,3.30
2017-10-21T08:45:21.784Z,2.93
2017-10-21T08:47:49.325Z,2.60
2017-10-21T08:50:16.850Z,2.97
2017-10-21T08:52:45.210Z,3.80
2017-10-21T08:55:12.745Z,2.70
2017-10-21T08:57:40.318Z,3.03
2017-10-21T09:00:07.833Z,2.80
2017-10-21T09:02:35.377Z,2.23
2017-10-21T09:05:03.665Z,2.53
2017-10-21T09:07:31.208Z,2.90
2017-10-21T09:09:59.496Z,3.17
2017-10-21T09:12:27.805Z,2.70
2017-10-21T09:14:55.333Z,3.40
2017-10-21T09:17:22.905Z,3.53
2017-10-21T09:19:50.454Z,4.00
2017-10-21T09:22:18.010Z,4.07
2017-10-21T09:24:45.555Z,3.80
2017-10-21T09:27:13.854Z,4.10
2017-10-21T09:29:41.408Z,5.37
2017-10-21T09:32:09.702Z,5.33
2017-10-21T09:34:37.253Z,5.10
2017-10-21T09:37:04.787Z,4.80
2017-10-21T09:39:33.134Z,5.03
2017-10-21T09:42:00.682Z,5.70
2017-10-21T09:44:28.206Z,4.80
2017-10-21T09:46:56.534Z,4.13
2017-10-21T09:49:24.082Z,4.37
2017-10-21T09:51:51.603Z,4.50
2017-10-21T09:54:19.141Z,6.30
2017-10-21T09:56:47.486Z,4.60
2017-10-21T09:59:15.126Z,4.50
2017-10-21T10:01:42.664Z,4.60
2017-10-21T10:04:10.264Z,4.43
2017-10-21T10:06:37.834Z,4.83
2017-10-21T10:09:05.358Z,4.67
2017-10-21T10:11:32.913Z,4.00
2017-10-21T10:14:00.455Z,5.43
2017-10-21T10:16:28.775Z,5.50
2017-10-21T10:18:56.306Z,4.90
2017-10-21T10:21:23.845Z,4.97
2017-10-21T10:23:52.156Z,4.87
2017-10-21T10:26:19.684Z,4.23
2017-10-21T10:28:48.005Z,3.80
2017-10-21T10:31:15.560Z,4.63
2017-10-21T10:33:43.108Z,4.40
2017-10-21T10:36:10.634Z,4.60
2017-10-21T10:38:38.242Z,3.80
2017-10-21T10:41:05.773Z,5.10
2017-10-21T10:43:33.327Z,4.63
2017-10-21T10:46:01.632Z,3.83
2017-10-21T10:48:29.206Z,5.00
2017-10-21T10:50:56.764Z,4.43
2017-10-21T10:53:24.297Z,4.33
2017-10-21T10:55:53.466Z,4.40
2017-10-21T10:58:21.770Z,4.70
2017-10-21T11:00:49.325Z,4.93
2017-10-21T11:03:17.631Z,5.00
2017-10-21T11:05:45.175Z,4.17
2017-10-21T11:08:12.725Z,3.80
2017-10-21T11:10:40.269Z,3.93
2017-10-21T11:13:08.595Z,3.70
2017-10-21T11:15:36.144Z,4.67
2017-10-21T11:18:03.725Z,4.80
2017-10-21T11:20:31.309Z,5.33
2017-10-21T11:22:59.618Z,4.63
2017-10-21T11:25:27.936Z,4.23
2017-10-21T11:27:55.469Z,4.77
2017-10-21T11:30:23.028Z,5.50
2017-10-21T11:32:50.555Z,4.20
2017-10-21T11:35:18.893Z,4.73
2017-10-21T11:37:46.427Z,3.90
2017-10-21T11:40:14.005Z,3.90
2017-10-21T11:42:41.545Z,4.53
2017-10-21T11:45:09.115Z,4.40
2017-10-21T11:47:36.678Z,4.57
2017-10-21T11:50:04.214Z,4.40
2017-10-21T11:52:31.769Z,4.50
2017-10-21T11:55:00.055Z,3.93
2017-10-21T11:57:27.606Z,4.37
2017-10-21T11:59:55.145Z,4.93
2017-10-21T12:02:22.701Z,5.60
2017-10-21T12:04:50.993Z,3.70
2017-10-21T12:07:19.306Z,4.57
2017-10-21T12:09:46.846Z,3.87
2017-10-21T12:12:14.397Z,4.60
2017-10-21T12:14:42.693Z,4.07
2017-10-21T12:17:10.268Z,3.90
2017-10-21T12:19:37.830Z,3.73
2017-10-21T12:22:05.384Z,4.97
2017-10-21T12:24:32.967Z,3.40
2017-10-21T12:27:00.492Z,3.73
2017-10-21T12:29:28.069Z,3.53
2017-10-21T12:31:55.597Z,3.60
2017-10-21T12:34:23.145Z,3.97
2017-10-21T12:36:51.597Z,3.70
2017-10-21T12:39:19.285Z,3.57
2017-10-21T12:41:47.586Z,3.50
2017-10-21T12:44:15.117Z,3.70
2017-10-21T12:46:43.439Z,3.57
2017-10-21T12:49:10.989Z,4.13
2017-10-21T12:51:38.540Z,3.10
2017-10-21T12:54:06.096Z,3.83
2017-10-21T12:56:33.622Z,3.97
2017-10-21T12:59:01.957Z,4.70
2017-10-21T13:01:29.778Z,3.33
2017-10-21T13:03:58.076Z,3.83
2017-10-21T13:06:25.633Z,3.60
2017-10-21T13:08:53.949Z,3.10
2017-10-21T13:11:21.510Z,3.23
2017-10-21T13:13:49.034Z,3.20
2017-10-21T13:16:16.594Z,3.00
2017-10-21T13:18:44.133Z,3.43
2017-10-21T13:21:12.460Z,3.10
2017-10-21T13:23:40.014Z,3.20
2017-10-21T13:26:07.567Z,2.60
2017-10-21T13:28:35.133Z,2.03
2017-10-21T13:31:02.677Z,2.37
2017-10-21T13:33:30.252Z,2.07
2017-10-21T13:35:57.789Z,3.17
2017-10-21T13:38:25.321Z,2.70
2017-10-21T13:40:52.877Z,2.03
2017-10-21T13:43:20.442Z,3.00
2017-10-21T13:45:48.784Z,2.47
2017-10-21T13:48:16.325Z,2.37
2017-10-21T13:50:43.871Z,2.83
2017-10-21T13:53:11.417Z,2.70
2017-10-21T13:55:39.715Z,2.53
2017-10-21T13:58:07.264Z,3.27
2017-10-21T14:00:38.253Z,2.77
2017-10-21T14:03:05.861Z,2.70
2017-10-21T14:05:34.164Z,3.53
2017-10-21T14:08:01.740Z,2.90
2017-10-21T14:10:29.305Z,2.40
2017-10-21T14:12:56.864Z,2.90
2017-10-21T14:15:24.403Z,3.10
2017-10-21T14:17:51.952Z,2.97
2017-10-21T14:20:19.481Z,3.73
2017-10-21T14:22:47.778Z,2.63
2017-10-21T14:25:15.330Z,2.50
2017-10-21T14:27:43.625Z,2.80
2017-10-21T14:30:11.196Z,3.13
2017-10-21T14:32:38.721Z,3.57
2017-10-21T14:35:07.121Z,3.50
2017-10-21T14:37:34.682Z,3.70
2017-10-21T14:40:02.237Z,3.60
2017-10-21T14:42:29.791Z,3.60
2017-10-21T14:44:58.097Z,3.47
2017-10-21T14:47:25.661Z,3.70
2017-10-21T14:49:53.965Z,3.80
2017-10-21T14:52:22.301Z,3.60
2017-10-21T14:54:49.833Z,3.93
2017-10-21T14:57:17.394Z,3.60
2017-10-21T14:59:44.931Z,3.70
2017-10-21T15:02:13.246Z,4.57
2017-10-21T15:04:40.833Z,4.00
2017-10-21T15:07:08.369Z,4.93
2017-10-21T15:09:35.922Z,4.60
2017-10-21T15:12:03.486Z,4.77
2017-10-21T15:14:31.048Z,4.77
2017-10-21T15:16:58.594Z,4.63
2017-10-21T15:19:26.140Z,4.60
2017-10-21T15:21:53.673Z,4.90
2017-10-21T15:24:21.238Z,3.90
2017-10-21T15:26:49.571Z,4.80
2017-10-21T15:29:17.121Z,4.57
2017-10-21T15:31:44.681Z,5.20
2017-10-21T15:34:12.207Z,5.30
2017-10-21T15:36:40.526Z,4.90
2017-10-21T15:39:08.056Z,4.53
2017-10-21T15:41:35.614Z,4.30
2017-10-21T15:44:03.143Z,4.77
2017-10-21T15:46:31.459Z,5.50
2017-10-21T15:48:58.985Z,4.73
2017-10-21T15:51:27.328Z,5.20
2017-10-21T15:53:54.861Z,5.30
2017-10-21T15:56:22.393Z,5.27
2017-10-21T15:58:50.720Z,5.50
2017-10-21T16:01:18.269Z,6.07
2017-10-21T16:03:45.845Z,6.27
2017-10-21T16:06:13.386Z,5.50
2017-10-21T16:08:40.938Z,6.00
2017-10-21T16:11:08.473Z,5.63
2017-10-21T16:13:36.816Z,5.90
2017-10-21T16:16:04.361Z,5.10
2017-10-21T16:18:32.318Z,6.40
2017-10-21T16:20:59.857Z,6.60
2017-10-21T16:23:27.405Z,6.03
2017-10-21T16:25:55.696Z,5.83
2017-10-21T16:28:23.229Z,5.93
2017-10-21T16:30:51.548Z,5.93
2017-10-21T16:33:19.076Z,5.77
2017-10-21T16:35:47.402Z,4.10
2017-10-21T16:38:14.939Z,4.13
2017-10-21T16:40:42.499Z,3.00
2017-10-21T16:43:10.043Z,2.40
2017-10-21T16:45:37.619Z,1.80
2017-10-21T16:48:05.192Z,1.50
2017-10-21T16:50:32.737Z,1.20
2017-10-21T16:53:00.306Z,1.50
2017-10-21T16:55:27.853Z,1.30
2017-10-21T16:57:56.509Z,1.00
2017-10-21T17:00:24.854Z,1.15
2017-10-21T17:02:52.385Z,1.10
2017-10-21T17:05:19.918Z,1.17
2017-10-21T17:07:47.485Z,0.90
2017-10-21T17:10:15.778Z,0.90
2017-10-21T17:12:43.350Z,0.77
2017-10-21T17:15:10.890Z,0.90
2017-10-21T17:17:38.455Z,0.90
2017-10-21T17:20:06.022Z,0.90
2017-10-21T17:22:33.600Z,1.10
2017-10-21T17:25:01.161Z,1.40
2017-10-21T17:27:29.466Z,1.30
2017-10-21T17:29:57.016Z,1.80
2017-10-21T17:32:25.324Z,1.30
2017-10-21T17:34:52.908Z,1.35
2017-10-21T17:37:20.621Z,1.08
2017-10-21T17:39:48.207Z,1.10
2017-10-21T17:42:15.781Z,0.90
2017-10-21T17:44:43.352Z,1.30
2017-10-21T17:47:10.914Z,1.10
2017-10-21T17:49:38.469Z,1.20
2017-10-21T17:52:06.012Z,0.88
2017-10-21T17:54:33.551Z,1.10
2017-10-21T17:57:01.103Z,0.88
2017-10-21T17:59:29.426Z,1.05
2017-10-21T18:01:56.978Z,0.80
2017-10-21T18:04:24.526Z,1.20
2017-10-21T18:06:52.087Z,1.33
2017-10-21T18:09:19.648Z,1.10
2017-10-21T18:11:47.204Z,0.90
2017-10-21T18:14:14.756Z,0.98
2017-10-21T18:16:43.085Z,1.15
2017-10-21T18:19:10.712Z,0.90
2017-10-21T18:21:38.261Z,0.80
2017-10-21T18:24:05.806Z,0.90
2017-10-21T18:26:33.363Z,0.95
2017-10-21T18:29:01.670Z,2.40
2017-10-21T18:31:29.213Z,1.15
2017-10-21T18:33:56.773Z,1.95
2017-10-21T18:36:24.334Z,1.10
2017-10-21T18:38:51.870Z,1.00
2017-10-21T18:41:20.198Z,1.20
2017-10-21T18:43:47.753Z,1.10
2017-10-21T18:46:15.352Z,1.20
2017-10-21T18:48:42.914Z,1.85
2017-10-21T18:51:10.449Z,1.65
2017-10-21T18:53:37.986Z,1.40
2017-10-21T18:56:05.546Z,1.20
2017-10-21T18:58:33.094Z,1.15
2017-10-21T19:01:00.633Z,1.23
2017-10-21T19:03:28.944Z,1.20
2017-10-21T19:05:56.517Z,1.42
2017-10-21T19:08:24.104Z,1.27
2017-10-21T19:10:51.671Z,1.23
2017-10-21T19:13:19.205Z,1.90
2017-10-21T19:15:46.757Z,1.10
2017-10-21T19:18:14.333Z,1.40
2017-10-21T19:20:41.862Z,1.02
2017-10-21T19:23:09.432Z,1.23
2017-10-21T19:25:36.957Z,1.55
2017-10-21T19:28:04.506Z,1.30
2017-10-21T19:30:32.794Z,1.00
2017-10-21T19:33:00.358Z,1.52
2017-10-21T19:35:27.920Z,1.30
2017-10-21T19:37:55.482Z,2.35
2017-10-21T19:40:23.008Z,1.45
2017-10-21T19:42:50.568Z,1.25
2017-10-21T19:45:18.129Z,1.40
2017-10-21T19:47:45.656Z,1.67
2017-10-21T19:50:13.244Z,1.30
2017-10-21T19:52:40.776Z,1.17
2017-10-21T19:55:08.323Z,1.20
2017-10-21T19:57:35.863Z,1.50
2017-10-21T20:00:03.414Z,1.37
2017-10-21T20:02:32.147Z,1.40
2017-10-21T20:04:59.690Z,1.00
2017-10-21T20:07:27.242Z,1.45
2017-10-21T20:09:54.769Z,3.90
2017-10-21T20:12:23.138Z,3.60
2017-10-21T20:14:51.456Z,2.40
2017-10-21T20:17:19.015Z,1.73
2017-10-21T20:19:46.542Z,1.37
2017-10-21T20:22:14.877Z,1.60
2017-10-21T20:24:42.394Z,1.17
2017-10-21T20:27:09.934Z,1.30
2017-10-21T20:29:38.248Z,1.30
2017-10-21T20:32:07.214Z,1.77
2017-10-21T20:34:35.522Z,1.10
2017-10-21T20:37:03.098Z,1.40
2017-10-21T20:39:30.807Z,4.45
2017-10-21T20:41:58.366Z,1.73
2017-10-21T20:44:25.928Z,1.80
2017-10-21T20:46:54.189Z,1.65
2017-10-21T20:49:22.524Z,1.30
2017-10-21T20:51:50.054Z,1.80
2017-10-21T20:54:18.382Z,1.10
2017-10-21T20:56:47.873Z,1.30
2017-10-21T20:59:15.440Z,4.22
2017-10-21T21:01:42.966Z,1.70
2017-10-21T21:04:10.702Z,1.52
2017-10-21T21:06:38.243Z,1.42
2017-10-21T21:09:06.557Z,1.65
2017-10-21T21:11:34.108Z,1.40
2017-10-21T21:14:01.621Z,1.50
2017-10-21T21:16:29.248Z,1.45
2017-10-21T21:18:56.797Z,1.58
2017-10-21T21:21:25.508Z,1.52
2017-10-21T21:23:53.830Z,1.65
2017-10-21T21:26:21.473Z,1.92
2017-10-21T21:28:49.062Z,1.70
2017-10-21T21:31:16.602Z,1.90
2017-10-21T21:33:44.154Z,1.30
2017-10-21T21:36:12.562Z,1.00
2017-10-21T21:38:40.159Z,1.20
2017-10-21T21:41:07.713Z,1.62
2017-10-21T21:43:35.240Z,1.50
2017-10-21T21:46:02.795Z,1.15
2017-10-21T21:48:30.352Z,1.48
2017-10-21T21:50:57.894Z,1.10
2017-10-21T21:53:25.424Z,1.60
2017-10-21T21:55:53.001Z,1.17
2017-10-21T21:58:21.318Z,1.30
2017-10-21T22:00:49.710Z,1.20
2017-10-21T22:03:17.261Z,1.35
2017-10-21T22:05:44.781Z,1.20
2017-10-21T22:08:12.342Z,1.23
2017-10-21T22:10:39.874Z,1.45
2017-10-21T22:13:07.418Z,1.50
2017-10-21T22:15:34.960Z,1.40
2017-10-21T22:18:02.537Z,1.10
2017-10-21T22:20:31.323Z,1.10
2017-10-21T22:22:58.853Z,1.10
2017-10-21T22:25:26.428Z,1.48
2017-10-21T22:27:53.996Z,1.45
2017-10-21T22:30:21.585Z,1.30
2017-10-21T22:32:49.110Z,1.20
2017-10-21T22:35:16.650Z,1.20
2017-10-21T22:37:44.200Z,0.98
2017-10-21T22:40:11.753Z,1.35
2017-10-21T22:42:39.287Z,1.10
2017-10-21T22:45:07.612Z,1.30
2017-10-21T22:47:35.153Z,1.10
2017-10-21T22:50:02.687Z,1.33
2017-10-21T22:52:31.023Z,1.35
2017-10-21T22:54:58.551Z,1.33
2017-10-21T22:57:26.096Z,1.40
2017-10-21T22:59:53.633Z,1.48
2017-10-21T23:02:21.936Z,1.23
2017-10-21T23:04:49.482Z,1.33
2017-10-21T23:07:17.030Z,1.23
2017-10-21T23:09:45.321Z,1.30
2017-10-21T23:12:12.845Z,1.65
2017-10-21T23:14:40.381Z,2.17
2017-10-21T23:17:07.919Z,1.20
2017-10-21T23:19:35.471Z,1.02
2017-10-21T23:22:03.026Z,1.10
2017-10-21T23:24:30.572Z,1.00
2017-10-21T23:26:58.853Z,0.98
2017-10-21T23:29:27.167Z,1.40
2017-10-21T23:31:54.697Z,1.20
2017-10-21T23:34:22.255Z,1.80
2017-10-21T23:36:49.783Z,1.10
2017-10-21T23:39:17.334Z,1.08
2017-10-21T23:41:44.877Z,1.80
2017-10-21T23:44:12.390Z,1.40
2017-10-21T23:46:39.919Z,1.35
2017-10-21T23:49:07.855Z,1.30
2017-10-21T23:51:35.384Z,1.25
2017-10-21T23:54:02.904Z,1.05
2017-10-21T23:56:31.217Z,1.10
2017-10-21T23:58:58.740Z,1.10
